sensor_id;sensor_type;location;lat;lon;timestamp;pressure;altitude;pressure_sealevel;temperature;humidity
8320;BME280;4197;42.130;24.746;2024-01-11T00:01:35;100731.50;;;-2.83;100.00
8320;BME280;4197;42.130;24.746;2024-01-11T00:04:03;100734.75;;;-2.93;100.00
8320;BME280;4197;42.130;24.746;2024-01-11T00:06:32;100725.03;;;-2.87;100.00
8320;BME280;4197;42.130;24.746;2024-01-11T00:09:00;100722.63;;;-2.89;100.00
8320;BME280;4197;42.130;24.746;2024-01-11T00:11:30;100726.41;;;-2.97;100.00
8320;BME280;4197;42.130;24.746;2024-01-11T00:13:59;100724.50;;;-3.01;100.00
8320;BME280;4197;42.130;24.746;2024-01-11T00:16:28;100722.28;;;-2.93;100.00
8320;BME280;4197;42.130;24.746;2024-01-11T00:18:56;100720.69;;;-2.94;100.00
8320;BME280;4197;42.130;24.746;2024-01-11T00:21:25;100718.94;;;-2.88;100.00
8320;BME280;4197;42.130;24.746;2024-01-11T00:23:53;100714.91;;;-2.90;100.00
8320;BME280;4197;42.130;24.746;2024-01-11T00:26:21;100713.72;;;-2.95;100.00
8320;BME280;4197;42.130;24.746;2024-01-11T00:28:53;100707.41;;;-2.94;100.00
8320;BME280;4197;42.130;24.746;2024-01-11T00:31:22;100703.91;;;-2.94;100.00
8320;BME280;4197;42.130;24.746;2024-01-11T00:33:50;100700.00;;;-2.92;100.00
8320;BME280;4197;42.130;24.746;2024-01-11T00:36:19;100702.44;;;-2.90;100.00
8320;BME280;4197;42.130;24.746;2024-01-11T00:38:49;100696.66;;;-2.87;100.00
8320;BME280;4197;42.130;24.746;2024-01-11T00:41:17;100697.94;;;-3.01;100.00
8320;BME280;4197;42.130;24.746;2024-01-11T00:43:45;100692.97;;;-2.98;100.00
8320;BME280;4197;42.130;24.746;2024-01-11T00:46:15;100684.69;;;-3.01;100.00
8320;BME280;4197;42.130;24.746;2024-01-11T00:48:43;100683.50;;;-3.05;100.00
8320;BME280;4197;42.130;24.746;2024-01-11T00:51:12;100673.59;;;-2.98;100.00
8320;BME280;4197;42.130;24.746;2024-01-11T00:53:40;100668.19;;;-3.03;100.00
8320;BME280;4197;42.130;24.746;2024-01-11T00:56:15;100663.81;;;-3.09;100.00
8320;BME280;4197;42.130;24.746;2024-01-11T00:58:43;100655.25;;;-3.11;100.00
8320;BME280;4197;42.130;24.746;2024-01-11T01:01:12;100665.09;;;-3.24;100.00
8320;BME280;4197;42.130;24.746;2024-01-11T01:03:42;100653.31;;;-3.28;100.00
8320;BME280;4197;42.130;24.746;2024-01-11T01:06:10;100651.38;;;-3.32;100.00
8320;BME280;4197;42.130;24.746;2024-01-11T01:08:39;100658.41;;;-3.38;100.00
8320;BME280;4197;42.130;24.746;2024-01-11T01:11:07;100656.13;;;-3.34;100.00
8320;BME280;4197;42.130;24.746;2024-01-11T01:13:35;100656.22;;;-3.29;100.00
8320;BME280;4197;42.130;24.746;2024-01-11T01:16:05;100654.25;;;-3.22;100.00
8320;BME280;4197;42.130;24.746;2024-01-11T01:18:33;100641.81;;;-3.33;100.00
8320;BME280;4197;42.130;24.746;2024-01-11T01:21:03;100637.66;;;-3.41;100.00
8320;BME280;4197;42.130;24.746;2024-01-11T01:23:33;100640.56;;;-3.43;100.00
8320;BME280;4197;42.130;24.746;2024-01-11T01:26:02;100636.25;;;-3.44;100.00
8320;BME280;4197;42.130;24.746;2024-01-11T01:28:33;100634.44;;;-3.43;100.00
8320;BME280;4197;42.130;24.746;2024-01-11T01:31:01;100635.69;;;-3.34;100.00
8320;BME280;4197;42.130;24.746;2024-01-11T01:33:30;100625.31;;;-3.36;100.00
8320;BME280;4197;42.130;24.746;2024-01-11T01:35:59;100629.22;;;-3.38;100.00
8320;BME280;4197;42.130;24.746;2024-01-11T01:38:28;100624.75;;;-3.38;100.00
8320;BME280;4197;42.130;24.746;2024-01-11T01:40:58;100625.09;;;-3.46;100.00
8320;BME280;4197;42.130;24.746;2024-01-11T01:43:26;100629.25;;;-3.50;100.00
8320;BME280;4197;42.130;24.746;2024-01-11T01:45:55;100622.56;;;-3.52;100.00
8320;BME280;4197;42.130;24.746;2024-01-11T01:48:23;100617.25;;;-3.52;100.00
8320;BME280;4197;42.130;24.746;2024-01-11T01:50:52;100614.97;;;-3.49;100.00
8320;BME280;4197;42.130;24.746;2024-01-11T01:53:22;100614.38;;;-3.51;100.00
8320;BME280;4197;42.130;24.746;2024-01-11T01:55:53;100613.34;;;-3.62;100.00
8320;BME280;4197;42.130;24.746;2024-01-11T01:58:22;100606.91;;;-3.66;100.00
8320;BME280;4197;42.130;24.746;2024-01-11T02:00:51;100604.47;;;-3.67;100.00
8320;BME280;4197;42.130;24.746;2024-01-11T02:03:20;100597.66;;;-3.75;100.00
8320;BME280;4197;42.130;24.746;2024-01-11T02:05:49;100594.09;;;-3.81;100.00
8320;BME280;4197;42.130;24.746;2024-01-11T02:08:22;100603.44;;;-3.78;100.00
8320;BME280;4197;42.130;24.746;2024-01-11T02:10:52;100598.84;;;-3.71;100.00
8320;BME280;4197;42.130;24.746;2024-01-11T02:13:22;100593.66;;;-3.66;100.00
8320;BME280;4197;42.130;24.746;2024-01-11T02:15:50;100595.38;;;-3.60;100.00
8320;BME280;4197;42.130;24.746;2024-01-11T02:18:19;100590.38;;;-3.44;100.00
8320;BME280;4197;42.130;24.746;2024-01-11T02:20:47;100586.16;;;-3.57;100.00
8320;BME280;4197;42.130;24.746;2024-01-11T02:23:19;100584.66;;;-3.65;100.00
8320;BME280;4197;42.130;24.746;2024-01-11T02:25:51;100580.50;;;-3.72;100.00
8320;BME280;4197;42.130;24.746;2024-01-11T02:28:19;100577.41;;;-3.81;100.00
8320;BME280;4197;42.130;24.746;2024-01-11T02:30:48;100581.31;;;-3.84;100.00
8320;BME280;4197;42.130;24.746;2024-01-11T02:33:16;100578.44;;;-3.82;100.00
8320;BME280;4197;42.130;24.746;2024-01-11T02:35:45;100579.81;;;-3.79;100.00
8320;BME280;4197;42.130;24.746;2024-01-11T02:38:14;100577.84;;;-3.72;100.00
8320;BME280;4197;42.130;24.746;2024-01-11T02:40:44;100573.59;;;-3.73;100.00
8320;BME280;4197;42.130;24.746;2024-01-11T02:43:14;100580.16;;;-3.76;100.00
8320;BME280;4197;42.130;24.746;2024-01-11T02:45:42;100576.59;;;-3.70;100.00
8320;BME280;4197;42.130;24.746;2024-01-11T02:48:11;100580.28;;;-3.71;100.00
8320;BME280;4197;42.130;24.746;2024-01-11T02:50:39;100578.44;;;-3.70;100.00
8320;BME280;4197;42.130;24.746;2024-01-11T02:53:08;100576.47;;;-3.75;100.00
8320;BME280;4197;42.130;24.746;2024-01-11T02:55:36;100580.63;;;-3.79;100.00
8320;BME280;4197;42.130;24.746;2024-01-11T02:58:04;100580.72;;;-3.86;100.00
8320;BME280;4197;42.130;24.746;2024-01-11T03:00:34;100583.03;;;-3.77;100.00
8320;BME280;4197;42.130;24.746;2024-01-11T03:03:03;100579.47;;;-3.83;100.00
8320;BME280;4197;42.130;24.746;2024-01-11T03:05:32;100578.19;;;-3.81;100.00
8320;BME280;4197;42.130;24.746;2024-01-11T03:08:00;100574.97;;;-3.83;100.00
8320;BME280;4197;42.130;24.746;2024-01-11T03:10:28;100569.09;;;-3.96;100.00
8320;BME280;4197;42.130;24.746;2024-01-11T03:12:57;100572.09;;;-4.05;100.00
8320;BME280;4197;42.130;24.746;2024-01-11T03:15:26;100572.44;;;-4.13;100.00
8320;BME280;4197;42.130;24.746;2024-01-11T03:17:55;100566.22;;;-4.18;100.00
8320;BME280;4197;42.130;24.746;2024-01-11T03:20:24;100560.09;;;-4.19;100.00
8320;BME280;4197;42.130;24.746;2024-01-11T03:22:53;100559.75;;;-4.22;100.00
8320;BME280;4197;42.130;24.746;2024-01-11T03:25:21;100559.53;;;-4.21;100.00
8320;BME280;4197;42.130;24.746;2024-01-11T03:27:50;100562.28;;;-4.16;100.00
8320;BME280;4197;42.130;24.746;2024-01-11T03:30:17;100561.72;;;-4.18;100.00
8320;BME280;4197;42.130;24.746;2024-01-11T03:32:45;100560.09;;;-4.19;100.00
8320;BME280;4197;42.130;24.746;2024-01-11T03:35:17;100554.31;;;-4.16;100.00
8320;BME280;4197;42.130;24.746;2024-01-11T03:37:46;100555.03;;;-4.09;100.00
8320;BME280;4197;42.130;24.746;2024-01-11T03:40:15;100555.28;;;-3.98;100.00
8320;BME280;4197;42.130;24.746;2024-01-11T03:42:43;100552.38;;;-3.97;100.00
8320;BME280;4197;42.130;24.746;2024-01-11T03:45:11;100551.38;;;-3.96;100.00
8320;BME280;4197;42.130;24.746;2024-01-11T03:47:39;100551.13;;;-4.06;100.00
8320;BME280;4197;42.130;24.746;2024-01-11T03:50:09;100550.53;;;-4.08;100.00
8320;BME280;4197;42.130;24.746;2024-01-11T03:52:39;100555.41;;;-3.93;100.00
8320;BME280;4197;42.130;24.746;2024-01-11T03:55:07;100547.00;;;-3.90;100.00
8320;BME280;4197;42.130;24.746;2024-01-11T03:57:36;100547.91;;;-3.85;100.00
8320;BME280;4197;42.130;24.746;2024-01-11T04:00:06;100542.81;;;-3.86;100.00
8320;BME280;4197;42.130;24.746;2024-01-11T04:02:37;100543.50;;;-3.91;100.00
8320;BME280;4197;42.130;24.746;2024-01-11T04:05:06;100539.03;;;-3.90;100.00
8320;BME280;4197;42.130;24.746;2024-01-11T04:07:34;100534.75;;;-3.91;100.00
8320;BME280;4197;42.130;24.746;2024-01-11T04:10:05;100523.72;;;-4.00;100.00
8320;BME280;4197;42.130;24.746;2024-01-11T04:12:35;100529.34;;;-4.08;100.00
8320;BME280;4197;42.130;24.746;2024-01-11T04:15:04;100533.16;;;-4.04;100.00
8320;BME280;4197;42.130;24.746;2024-01-11T04:17:33;100522.44;;;-4.09;100.00
8320;BME280;4197;42.130;24.746;2024-01-11T04:20:02;100520.00;;;-4.11;100.00
8320;BME280;4197;42.130;24.746;2024-01-11T04:22:30;100520.72;;;-4.15;100.00
8320;BME280;4197;42.130;24.746;2024-01-11T04:24:59;100523.00;;;-4.19;100.00
8320;BME280;4197;42.130;24.746;2024-01-11T04:27:28;100523.38;;;-4.15;100.00
8320;BME280;4197;42.130;24.746;2024-01-11T04:29:57;100527.28;;;-4.06;100.00
8320;BME280;4197;42.130;24.746;2024-01-11T04:32:25;100525.78;;;-4.14;100.00
8320;BME280;4197;42.130;24.746;2024-01-11T04:34:53;100527.16;;;-4.11;100.00
8320;BME280;4197;42.130;24.746;2024-01-11T04:37:22;100525.66;;;-4.19;100.00
8320;BME280;4197;42.130;24.746;2024-01-11T04:39:50;100527.28;;;-4.18;100.00
8320;BME280;4197;42.130;24.746;2024-01-11T04:42:18;100528.09;;;-4.29;100.00
8320;BME280;4197;42.130;24.746;2024-01-11T04:44:48;100523.94;;;-4.25;100.00
8320;BME280;4197;42.130;24.746;2024-01-11T04:47:16;100523.13;;;-4.14;100.00
8320;BME280;4197;42.130;24.746;2024-01-11T04:49:45;100522.78;;;-4.06;100.00
8320;BME280;4197;42.130;24.746;2024-01-11T04:52:13;100524.41;;;-4.05;100.00
8320;BME280;4197;42.130;24.746;2024-01-11T04:54:41;100522.53;;;-4.16;100.00
8320;BME280;4197;42.130;24.746;2024-01-11T04:57:10;100529.00;;;-4.12;100.00
8320;BME280;4197;42.130;24.746;2024-01-11T04:59:38;100526.38;;;-4.12;100.00
8320;BME280;4197;42.130;24.746;2024-01-11T05:02:08;100509.88;;;-4.14;100.00
8320;BME280;4197;42.130;24.746;2024-01-11T05:04:37;100515.53;;;-4.10;100.00
8320;BME280;4197;42.130;24.746;2024-01-11T05:07:05;100512.19;;;-4.17;100.00
8320;BME280;4197;42.130;24.746;2024-01-11T05:09:34;100510.81;;;-4.20;100.00
8320;BME280;4197;42.130;24.746;2024-01-11T05:12:02;100507.69;;;-4.29;100.00
8320;BME280;4197;42.130;24.746;2024-01-11T05:14:31;100504.81;;;-4.27;100.00
8320;BME280;4197;42.130;24.746;2024-01-11T05:17:00;100509.75;;;-4.19;100.00
8320;BME280;4197;42.130;24.746;2024-01-11T05:19:30;100506.44;;;-4.14;100.00
8320;BME280;4197;42.130;24.746;2024-01-11T05:21:59;100504.91;;;-4.10;100.00
8320;BME280;4197;42.130;24.746;2024-01-11T05:24:27;100505.19;;;-4.23;100.00
8320;BME280;4197;42.130;24.746;2024-01-11T05:26:55;100494.47;;;-4.17;100.00
8320;BME280;4197;42.130;24.746;2024-01-11T05:29:24;100494.56;;;-4.35;100.00
8320;BME280;4197;42.130;24.746;2024-01-11T05:31:54;100498.50;;;-4.38;100.00
8320;BME280;4197;42.130;24.746;2024-01-11T05:34:23;100491.56;;;-4.39;100.00
8320;BME280;4197;42.130;24.746;2024-01-11T05:36:53;100496.31;;;-4.29;100.00
8320;BME280;4197;42.130;24.746;2024-01-11T05:39:24;100493.41;;;-4.28;100.00
8320;BME280;4197;42.130;24.746;2024-01-11T05:41:52;100495.38;;;-4.23;100.00
8320;BME280;4197;42.130;24.746;2024-01-11T05:44:21;100490.88;;;-4.22;100.00
8320;BME280;4197;42.130;24.746;2024-01-11T05:46:50;100489.38;;;-4.30;100.00
8320;BME280;4197;42.130;24.746;2024-01-11T05:49:18;100486.06;;;-4.37;100.00
8320;BME280;4197;42.130;24.746;2024-01-11T05:51:46;100484.66;;;-4.40;100.00
8320;BME280;4197;42.130;24.746;2024-01-11T05:54:16;100483.16;;;-4.47;100.00
8320;BME280;4197;42.130;24.746;2024-01-11T05:56:44;100489.50;;;-4.49;100.00
8320;BME280;4197;42.130;24.746;2024-01-11T05:59:13;100481.19;;;-4.52;100.00
8320;BME280;4197;42.130;24.746;2024-01-11T06:01:41;100484.16;;;-4.60;100.00
8320;BME280;4197;42.130;24.746;2024-01-11T06:04:10;100484.66;;;-4.40;100.00
8320;BME280;4197;42.130;24.746;2024-01-11T06:06:39;100480.06;;;-4.33;100.00
8320;BME280;4197;42.130;24.746;2024-01-11T06:09:08;100478.22;;;-4.20;100.00
8320;BME280;4197;42.130;24.746;2024-01-11T06:11:38;100478.09;;;-4.26;100.00
8320;BME280;4197;42.130;24.746;2024-01-11T06:14:06;100481.09;;;-4.22;100.00
8320;BME280;4197;42.130;24.746;2024-01-11T06:16:35;100473.16;;;-4.22;100.00
8320;BME280;4197;42.130;24.746;2024-01-11T06:19:03;100481.22;;;-4.17;100.00
8320;BME280;4197;42.130;24.746;2024-01-11T06:21:34;100468.66;;;-4.10;100.00
8320;BME280;4197;42.130;24.746;2024-01-11T06:24:02;100484.09;;;-4.07;100.00
8320;BME280;4197;42.130;24.746;2024-01-11T06:26:31;100475.91;;;-4.05;100.00
8320;BME280;4197;42.130;24.746;2024-01-11T06:29:01;100474.09;;;-4.05;100.00
8320;BME280;4197;42.130;24.746;2024-01-11T06:31:29;100477.06;;;-4.01;100.00
8320;BME280;4197;42.130;24.746;2024-01-11T06:33:58;100468.88;;;-3.99;100.00
8320;BME280;4197;42.130;24.746;2024-01-11T06:36:26;100468.41;;;-3.96;100.00
8320;BME280;4197;42.130;24.746;2024-01-11T06:38:55;100463.00;;;-3.90;100.00
8320;BME280;4197;42.130;24.746;2024-01-11T06:41:23;100467.97;;;-3.93;100.00
8320;BME280;4197;42.130;24.746;2024-01-11T06:43:51;100464.47;;;-3.94;100.00
8320;BME280;4197;42.130;24.746;2024-01-11T06:46:21;100466.00;;;-3.98;100.00
8320;BME280;4197;42.130;24.746;2024-01-11T06:49:07;100463.91;;;-3.84;100.00
8320;BME280;4197;42.130;24.746;2024-01-11T06:51:36;100471.03;;;-3.73;100.00
8320;BME280;4197;42.130;24.746;2024-01-11T06:54:07;100464.66;;;-3.72;100.00
8320;BME280;4197;42.130;24.746;2024-01-11T06:56:35;100465.41;;;-3.76;100.00
8320;BME280;4197;42.130;24.746;2024-01-11T06:59:04;100463.53;;;-3.76;100.00
8320;BME280;4197;42.130;24.746;2024-01-11T07:01:35;100467.31;;;-3.72;100.00
8320;BME280;4197;42.130;24.746;2024-01-11T07:04:03;100471.13;;;-3.68;100.00
8320;BME280;4197;42.130;24.746;2024-01-11T07:06:32;100458.91;;;-3.69;100.00
8320;BME280;4197;42.130;24.746;2024-01-11T07:09:00;100469.59;;;-3.52;100.00
8320;BME280;4197;42.130;24.746;2024-01-11T07:11:28;100473.16;;;-3.46;100.00
8320;BME280;4197;42.130;24.746;2024-01-11T07:13:57;100463.53;;;-3.36;100.00
8320;BME280;4197;42.130;24.746;2024-01-11T07:16:26;100469.72;;;-3.30;100.00
8320;BME280;4197;42.130;24.746;2024-01-11T07:18:56;100471.94;;;-3.27;100.00
8320;BME280;4197;42.130;24.746;2024-01-11T07:21:25;100470.97;;;-3.21;100.00
8320;BME280;4197;42.130;24.746;2024-01-11T07:23:56;100471.88;;;-3.15;100.00
8320;BME280;4197;42.130;24.746;2024-01-11T07:26:25;100463.44;;;-3.12;100.00
8320;BME280;4197;42.130;24.746;2024-01-11T07:28:53;100464.22;;;-3.11;100.00
8320;BME280;4197;42.130;24.746;2024-01-11T07:31:23;100459.59;;;-3.04;100.00
8320;BME280;4197;42.130;24.746;2024-01-11T07:33:51;100461.59;;;-2.95;100.00
8320;BME280;4197;42.130;24.746;2024-01-11T07:36:21;100457.94;;;-2.94;100.00
8320;BME280;4197;42.130;24.746;2024-01-11T07:38:49;100451.56;;;-2.93;100.00
8320;BME280;4197;42.130;24.746;2024-01-11T07:41:18;100448.41;;;-3.06;100.00
8320;BME280;4197;42.130;24.746;2024-01-11T07:43:46;100445.50;;;-3.05;100.00
8320;BME280;4197;42.130;24.746;2024-01-11T07:46:20;100439.34;;;-2.77;100.00
8320;BME280;4197;42.130;24.746;2024-01-11T07:49:04;100440.88;;;-2.81;100.00
8320;BME280;4197;42.130;24.746;2024-01-11T07:51:34;100440.94;;;-2.76;100.00
8320;BME280;4197;42.130;24.746;2024-01-11T07:54:03;100434.75;;;-2.64;100.00
8320;BME280;4197;42.130;24.746;2024-01-11T07:56:32;100429.69;;;-2.49;100.00
8320;BME280;4197;42.130;24.746;2024-01-11T07:59:00;100437.88;;;-2.51;100.00
8320;BME280;4197;42.130;24.746;2024-01-11T08:01:28;100434.16;;;-2.50;100.00
8320;BME280;4197;42.130;24.746;2024-01-11T08:03:56;100434.63;;;-2.36;100.00
8320;BME280;4197;42.130;24.746;2024-01-11T08:06:25;100434.31;;;-2.22;100.00
8320;BME280;4197;42.130;24.746;2024-01-11T08:08:55;100420.72;;;-2.26;100.00
8320;BME280;4197;42.130;24.746;2024-01-11T08:11:23;100423.19;;;-2.19;100.00
8320;BME280;4197;42.130;24.746;2024-01-11T08:13:53;100421.41;;;-2.14;100.00
8320;BME280;4197;42.130;24.746;2024-01-11T08:16:21;100420.75;;;-2.04;100.00
8320;BME280;4197;42.130;24.746;2024-01-11T08:18:50;100422.09;;;-2.02;100.00
8320;BME280;4197;42.130;24.746;2024-01-11T08:21:19;100412.84;;;-1.99;100.00
8320;BME280;4197;42.130;24.746;2024-01-11T08:23:47;100416.16;;;-1.87;100.00
8320;BME280;4197;42.130;24.746;2024-01-11T08:26:17;100411.91;;;-1.88;100.00
8320;BME280;4197;42.130;24.746;2024-01-11T08:28:46;100405.09;;;-1.78;100.00
8320;BME280;4197;42.130;24.746;2024-01-11T08:31:14;100415.06;;;-1.91;100.00
8320;BME280;4197;42.130;24.746;2024-01-11T08:33:43;100405.72;;;-1.71;100.00
8320;BME280;4197;42.130;24.746;2024-01-11T08:36:11;100402.34;;;-1.62;100.00
8320;BME280;4197;42.130;24.746;2024-01-11T08:38:40;100404.78;;;-1.60;100.00
8320;BME280;4197;42.130;24.746;2024-01-11T08:41:08;100402.72;;;-1.53;100.00
8320;BME280;4197;42.130;24.746;2024-01-11T08:43:38;100397.28;;;-1.41;100.00
8320;BME280;4197;42.130;24.746;2024-01-11T08:46:07;100398.59;;;-1.39;100.00
8320;BME280;4197;42.130;24.746;2024-01-11T08:48:35;100387.59;;;-1.20;100.00
8320;BME280;4197;42.130;24.746;2024-01-11T08:51:04;100388.16;;;-1.18;100.00
8320;BME280;4197;42.130;24.746;2024-01-11T08:53:33;100387.41;;;-1.14;100.00
8320;BME280;4197;42.130;24.746;2024-01-11T08:56:01;100379.44;;;-1.08;100.00
8320;BME280;4197;42.130;24.746;2024-01-11T08:58:30;100373.41;;;-0.99;100.00
8320;BME280;4197;42.130;24.746;2024-01-11T09:00:59;100374.78;;;-0.96;100.00
8320;BME280;4197;42.130;24.746;2024-01-11T09:03:28;100366.50;;;-1.00;100.00
8320;BME280;4197;42.130;24.746;2024-01-11T09:05:56;100363.38;;;-0.86;100.00
8320;BME280;4197;42.130;24.746;2024-01-11T09:08:25;100356.97;;;-0.91;100.00
8320;BME280;4197;42.130;24.746;2024-01-11T09:10:53;100355.47;;;-0.76;100.00
8320;BME280;4197;42.130;24.746;2024-01-11T09:13:21;100352.91;;;-0.61;100.00
8320;BME280;4197;42.130;24.746;2024-01-11T09:15:50;100343.06;;;-0.60;100.00
8320;BME280;4197;42.130;24.746;2024-01-11T09:18:20;100338.00;;;-0.57;100.00
8320;BME280;4197;42.130;24.746;2024-01-11T09:20:49;100340.91;;;-0.58;100.00
8320;BME280;4197;42.130;24.746;2024-01-11T09:23:17;100338.25;;;-0.58;100.00
8320;BME280;4197;42.130;24.746;2024-01-11T09:25:46;100326.38;;;-0.40;100.00
8320;BME280;4197;42.130;24.746;2024-01-11T09:28:14;100322.41;;;-0.33;100.00
8320;BME280;4197;42.130;24.746;2024-01-11T09:30:42;100310.47;;;-0.20;100.00
8320;BME280;4197;42.130;24.746;2024-01-11T09:33:10;100307.81;;;-0.15;100.00
8320;BME280;4197;42.130;24.746;2024-01-11T09:35:41;100311.84;;;-0.12;100.00
8320;BME280;4197;42.130;24.746;2024-01-11T09:38:09;100318.28;;;0.02;100.00
8320;BME280;4197;42.130;24.746;2024-01-11T09:40:38;100306.03;;;0.06;100.00
8320;BME280;4197;42.130;24.746;2024-01-11T09:43:09;100302.84;;;0.14;100.00
8320;BME280;4197;42.130;24.746;2024-01-11T09:45:38;100294.31;;;0.17;100.00
8320;BME280;4197;42.130;24.746;2024-01-11T09:48:08;100285.53;;;0.27;100.00
8320;BME280;4197;42.130;24.746;2024-01-11T09:50:38;100278.31;;;0.33;100.00
8320;BME280;4197;42.130;24.746;2024-01-11T09:53:09;100272.75;;;0.34;100.00
8320;BME280;4197;42.130;24.746;2024-01-11T09:55:38;100269.78;;;0.36;100.00
8320;BME280;4197;42.130;24.746;2024-01-11T09:58:06;100253.53;;;0.37;100.00
8320;BME280;4197;42.130;24.746;2024-01-11T10:00:36;100249.78;;;0.54;100.00
8320;BME280;4197;42.130;24.746;2024-01-11T10:03:05;100254.56;;;0.82;100.00
8320;BME280;4197;42.130;24.746;2024-01-11T10:05:34;100248.19;;;0.83;100.00
8320;BME280;4197;42.130;24.746;2024-01-11T10:08:03;100243.88;;;0.87;100.00
8320;BME280;4197;42.130;24.746;2024-01-11T10:10:34;100242.56;;;0.85;100.00
8320;BME280;4197;42.130;24.746;2024-01-11T10:13:02;100235.09;;;0.87;100.00
8320;BME280;4197;42.130;24.746;2024-01-11T10:15:31;100234.78;;;0.94;100.00
8320;BME280;4197;42.130;24.746;2024-01-11T10:18:00;100224.91;;;0.99;100.00
8320;BME280;4197;42.130;24.746;2024-01-11T10:20:28;100213.09;;;1.16;100.00
8320;BME280;4197;42.130;24.746;2024-01-11T10:22:59;100212.59;;;1.08;100.00
8320;BME280;4197;42.130;24.746;2024-01-11T10:25:28;100217.63;;;1.20;100.00
8320;BME280;4197;42.130;24.746;2024-01-11T10:27:58;100201.28;;;1.32;100.00
8320;BME280;4197;42.130;24.746;2024-01-11T10:30:26;100198.06;;;1.35;100.00
8320;BME280;4197;42.130;24.746;2024-01-11T10:32:57;100194.59;;;1.40;100.00
8320;BME280;4197;42.130;24.746;2024-01-11T10:35:26;100193.56;;;1.25;100.00
8320;BME280;4197;42.130;24.746;2024-01-11T10:37:55;100185.69;;;1.54;100.00
8320;BME280;4197;42.130;24.746;2024-01-11T10:40:26;100180.06;;;1.56;100.00
8320;BME280;4197;42.130;24.746;2024-01-11T10:42:58;100182.44;;;1.58;100.00
8320;BME280;4197;42.130;24.746;2024-01-11T10:45:31;100173.59;;;1.67;100.00
8320;BME280;4197;42.130;24.746;2024-01-11T10:48:07;100177.09;;;1.63;100.00
8320;BME280;4197;42.130;24.746;2024-01-11T10:50:43;100169.84;;;1.63;100.00
8320;BME280;4197;42.130;24.746;2024-01-11T10:53:21;100163.16;;;1.66;100.00
8320;BME280;4197;42.130;24.746;2024-01-11T10:55:57;100146.84;;;1.67;100.00
8320;BME280;4197;42.130;24.746;2024-01-11T10:58:29;100143.69;;;1.55;100.00
8320;BME280;4197;42.130;24.746;2024-01-11T11:00:59;100143.25;;;1.43;100.00
8320;BME280;4197;42.130;24.746;2024-01-11T11:03:29;100136.75;;;1.59;100.00
8320;BME280;4197;42.130;24.746;2024-01-11T11:05:58;100132.28;;;1.89;100.00
8320;BME280;4197;42.130;24.746;2024-01-11T11:08:28;100129.91;;;1.82;100.00
8320;BME280;4197;42.130;24.746;2024-01-11T11:10:59;100130.69;;;1.83;100.00
8320;BME280;4197;42.130;24.746;2024-01-11T11:13:30;100120.09;;;2.07;100.00
8320;BME280;4197;42.130;24.746;2024-01-11T11:15:58;100118.19;;;2.07;100.00
8320;BME280;4197;42.130;24.746;2024-01-11T11:18:28;100109.88;;;2.14;100.00
8320;BME280;4197;42.130;24.746;2024-01-11T11:20:58;100111.97;;;2.17;100.00
8320;BME280;4197;42.130;24.746;2024-01-11T11:23:26;100112.25;;;2.15;100.00
8320;BME280;4197;42.130;24.746;2024-01-11T11:25:55;100104.78;;;2.12;100.00
8320;BME280;4197;42.130;24.746;2024-01-11T11:28:24;100104.59;;;2.33;100.00
8320;BME280;4197;42.130;24.746;2024-01-11T11:31:00;100098.63;;;2.41;100.00
8320;BME280;4197;42.130;24.746;2024-01-11T11:33:30;100087.28;;;2.49;100.00
8320;BME280;4197;42.130;24.746;2024-01-11T11:35:59;100088.03;;;2.55;100.00
8320;BME280;4197;42.130;24.746;2024-01-11T11:38:28;100077.09;;;2.51;100.00
8320;BME280;4197;42.130;24.746;2024-01-11T11:40:58;100072.50;;;2.57;100.00
8320;BME280;4197;42.130;24.746;2024-01-11T11:43:28;100071.81;;;2.46;100.00
8320;BME280;4197;42.130;24.746;2024-01-11T11:46:00;100064.63;;;2.41;100.00
8320;BME280;4197;42.130;24.746;2024-01-11T11:48:53;100059.00;;;2.43;100.00
8320;BME280;4197;42.130;24.746;2024-01-11T11:51:23;100043.13;;;2.71;100.00
8320;BME280;4197;42.130;24.746;2024-01-11T11:53:55;100045.19;;;2.79;100.00
8320;BME280;4197;42.130;24.746;2024-01-11T11:56:24;100043.50;;;2.64;100.00
8320;BME280;4197;42.130;24.746;2024-01-11T11:58:52;100027.75;;;2.57;100.00
8320;BME280;4197;42.130;24.746;2024-01-11T12:01:24;100017.00;;;2.62;100.00
8320;BME280;4197;42.130;24.746;2024-01-11T12:03:53;100016.44;;;2.65;100.00
8320;BME280;4197;42.130;24.746;2024-01-11T12:06:22;100004.66;;;2.66;100.00
8320;BME280;4197;42.130;24.746;2024-01-11T12:08:53;99999.00;;;2.68;100.00
8320;BME280;4197;42.130;24.746;2024-01-11T12:11:24;100000.28;;;2.71;100.00
8320;BME280;4197;42.130;24.746;2024-01-11T12:13:56;99984.63;;;2.83;100.00
8320;BME280;4197;42.130;24.746;2024-01-11T12:16:32;99981.94;;;2.83;100.00
8320;BME280;4197;42.130;24.746;2024-01-11T12:19:00;99983.72;;;2.87;100.00
8320;BME280;4197;42.130;24.746;2024-01-11T12:21:29;99980.53;;;2.85;100.00
8320;BME280;4197;42.130;24.746;2024-01-11T12:23:58;99973.31;;;2.86;100.00
8320;BME280;4197;42.130;24.746;2024-01-11T12:26:27;99976.00;;;3.05;100.00
8320;BME280;4197;42.130;24.746;2024-01-11T12:28:56;99978.72;;;3.19;100.00
8320;BME280;4197;42.130;24.746;2024-01-11T12:31:25;99973.22;;;3.29;100.00
8320;BME280;4197;42.130;24.746;2024-01-11T12:33:56;99962.97;;;3.50;100.00
8320;BME280;4197;42.130;24.746;2024-01-11T12:36:24;99961.03;;;3.69;100.00
8320;BME280;4197;42.130;24.746;2024-01-11T12:38:54;99959.09;;;3.56;100.00
8320;BME280;4197;42.130;24.746;2024-01-11T12:41:23;99959.09;;;3.56;100.00
8320;BME280;4197;42.130;24.746;2024-01-11T12:43:52;99953.97;;;3.41;100.00
8320;BME280;4197;42.130;24.746;2024-01-11T12:46:21;99952.72;;;3.38;100.00
8320;BME280;4197;42.130;24.746;2024-01-11T12:48:50;99946.31;;;3.34;100.00
8320;BME280;4197;42.130;24.746;2024-01-11T12:51:22;99947.91;;;3.68;100.00
8320;BME280;4197;42.130;24.746;2024-01-11T12:53:52;99956.34;;;3.61;100.00
8320;BME280;4197;42.130;24.746;2024-01-11T12:56:22;99945.56;;;3.47;100.00
8320;BME280;4197;42.130;24.746;2024-01-11T12:58:51;99943.59;;;3.53;97.93
8320;BME280;4197;42.130;24.746;2024-01-11T13:01:20;99935.38;;;3.49;90.82
8320;BME280;4197;42.130;24.746;2024-01-11T13:03:48;99930.00;;;3.49;87.31